Weather History for PAWM - October, 2013

Change the Weather History Date:

Tuesday, October 15, 2013

  Actual Average (PAKK) Record (PAKK)
Temperature  
Mean Temperature 40 °F -  
Max Temperature 43 °F 28 °F 48 °F (2002)
Min Temperature 37 °F 20 °F 8 °F (2008)
Degree Days  
Heating Degree Days 26    
Moisture  
Dew Point 41 °F    
Average Humidity 99    
Maximum Humidity 100    
Minimum Humidity 93    
Precipitation  
Precipitation 0.43 in - - ()
Sea Level Pressure  
Sea Level Pressure 29.53 in    
Wind  
Wind Speed 14 mph (SE)    
Max Wind Speed 20 mph    
Max Gust Speed 28 mph    
Visibility 2 miles    
Events Fog , Rain    
Averages and records for this station are not official NWS values.
T = Trace of Precipitation, MM = Missing Value Source: NWS Daily Summary

Daily Weather History Graph

Daily Weather History Graph

Search for Another Location

Airport or City:

Trip Planner

Search our weather history database for the weather conditions in past years. The results will help you decide how hot, cold, wet, or windy it might be!

Date:

Astronomy

Oct. 15, 2013 Rise Set
Actual Time 9:47 AM AKDT 7:30 PM AKDT
Civil Twilight 8:57 AM AKDT 8:19 PM AKDT
Nautical Twilight 8:00 AM AKDT 9:15 PM AKDT
Astronomical Twilight 7:03 AM AKDT 10:13 PM AKDT
Moon 6:33 PM AKDT (10/15) 5:18 AM AKDT (10/15)
Length of Visible Light 11h 22m
Length of Day
9h 42m
Waxing Gibbous, 89% of the Moon is Illuminated
Oct 15
Waxing Gibbous
Oct 18
Full
Oct 26
Last Quarter
Nov 3
New
Nov 9
First Quarter

Hourly Weather History & Observations

Time (AKDT) Temp. Windchill Dew Point Humidity Pressure Visibility Wind Dir Wind Speed Gust Speed Precip Events Conditions
12:58 AM 37.9 °F 28.9 °F 37.0 °F 97% 29.56 in 8.0 mi ESE 16.1 mph 23.0 mph 0.00 in Rain Light Rain
1:10 AM 37.4 °F 28.9 °F 37.4 °F 100% 29.52 in 8.0 mi ESE 13.8 mph 21.9 mph 0.00 in Rain Light Rain
1:14 AM 37.4 °F 28.2 °F 37.4 °F 100% 29.52 in 7.0 mi ESE 16.1 mph 21.9 mph 0.00 in Rain Light Rain
1:58 AM 37.9 °F 29.2 °F 37.0 °F 97% 29.54 in 8.0 mi ESE 15.0 mph 21.9 mph 0.01 in Rain Light Rain
2:08 AM 37.4 °F 28.5 °F 37.4 °F 100% 29.51 in 7.0 mi ESE 15.0 mph 23.0 mph 0.00 in Rain Light Rain
2:14 AM 37.4 °F 28.9 °F 37.4 °F 100% 29.50 in 7.0 mi SE 13.8 mph 20.7 mph 0.00 in Rain Light Rain
2:42 AM 39.2 °F 31.2 °F 37.4 °F 93% 29.50 in 7.0 mi SE 13.8 mph - 0.02 in Rain Light Rain
2:58 AM 39.0 °F 31.0 °F 39.0 °F 100% 29.53 in 5.0 mi SE 13.8 mph - 0.02 in Rain Light Rain
3:13 AM 39.2 °F 31.2 °F 39.2 °F 100% 29.49 in 3.0 mi SE 13.8 mph - 0.00 in Rain Light Rain
3:56 AM 41.0 °F 33.9 °F 41.0 °F 100% 29.49 in 2.5 mi SSE 12.7 mph - 0.04 in Rain Light Rain
3:58 AM 41.0 °F 33.1 °F 41.0 °F 100% 29.52 in 2.0 mi South 15.0 mph - 0.04 in Rain Light Rain
4:13 AM 42.8 °F 35.4 °F 41.0 °F 93% 29.48 in 1.5 mi South 15.0 mph - 0.01 in Rain Light Rain
4:21 AM 42.8 °F 34.5 °F 41.0 °F 93% 29.48 in 1.0 mi South 18.4 mph - 0.02 in Rain Light Rain
4:33 AM 42.8 °F 35.1 °F 41.0 °F 93% 29.49 in 0.8 mi South 16.1 mph 23.0 mph 0.03 in Rain Light Rain
4:44 AM 42.8 °F 35.4 °F 41.0 °F 93% 29.49 in 1.0 mi South 15.0 mph 23.0 mph 0.04 in Rain Light Rain
4:53 AM 42.8 °F 35.1 °F 41.0 °F 93% 29.49 in 1.2 mi South 16.1 mph 21.9 mph 0.05 in Rain Light Rain
4:58 AM 42.1 °F 34.5 °F 41.0 °F 96% 29.52 in 1.8 mi South 15.0 mph 21.9 mph 0.05 in Rain Light Rain
5:58 AM 42.1 °F 33.9 °F 42.1 °F 100% 29.52 in 1.5 mi South 17.3 mph 21.9 mph 0.06 in Rain Light Rain
6:06 AM 42.8 °F 35.1 °F 42.8 °F 100% 29.49 in 1.0 mi South 16.1 mph 21.9 mph 0.00 in Rain Light Rain
6:10 AM 42.8 °F 35.1 °F 42.8 °F 100% 29.49 in 0.8 mi SSE 16.1 mph 21.9 mph 0.00 in Rain Light Rain
6:19 AM 42.8 °F 35.8 °F 42.8 °F 100% 29.49 in 1.0 mi SSE 13.8 mph 21.9 mph 0.00 in Rain Light Rain
6:23 AM 42.8 °F 35.4 °F 42.8 °F 100% 29.49 in 1.8 mi SSE 15.0 mph - 0.00 in Rain Light Rain
6:28 AM 42.8 °F 35.1 °F 42.8 °F 100% 29.49 in 3.0 mi SSE 16.1 mph - 0.00 in Rain Light Rain
6:58 AM 42.1 °F 33.3 °F 42.1 °F 100% 29.52 in 4.0 mi SSE 19.6 mph 25.3 mph 0.01 in Rain Light Rain
7:40 AM 42.8 °F 34.5 °F 42.8 °F 100% 29.49 in 8.0 mi SSE 18.4 mph 25.3 mph 0.03 in Rain Light Rain
7:58 AM 42.1 °F 33.3 °F 42.1 °F 100% 29.53 in 8.0 mi SSE 19.6 mph 26.5 mph 0.04 in Rain Light Rain
8:58 AM 42.1 °F 33.9 °F 42.1 °F 100% 29.53 in 7.0 mi SSE 17.3 mph 24.2 mph 0.07 in Rain Light Rain
9:18 AM 42.8 °F 34.3 °F 42.8 °F 100% 29.49 in 9.0 mi SSE 19.6 mph 27.6 mph 0.00 in Rain Light Rain
9:48 AM 42.8 °F 35.1 °F 41.0 °F 93% 29.50 in 4.0 mi SSE 16.1 mph 21.9 mph 0.01 in Rain Light Rain
9:56 AM 42.8 °F 35.4 °F 41.0 °F 93% 29.50 in 1.8 mi SSE 15.0 mph - 0.01 in Rain Light Rain
9:58 AM 42.1 °F 33.9 °F 41.0 °F 96% 29.53 in 1.5 mi SSE 17.3 mph - 0.01 in Rain Light Rain
10:02 AM 42.8 °F 35.1 °F 41.0 °F 93% 29.50 in 0.8 mi SSE 16.1 mph - 0.00 in Rain Light Rain
10:07 AM 42.8 °F 35.4 °F 41.0 °F 93% 29.50 in 0.5 mi SSE 15.0 mph - 0.01 in Fog , Rain Light Rain
10:12 AM 41.0 °F 33.1 °F 41.0 °F 100% 29.50 in 0.2 mi SSE 15.0 mph - 0.01 in Fog , Rain Light Rain
10:33 AM 41.0 °F 32.8 °F 41.0 °F 100% 29.50 in 0.5 mi SSE 16.1 mph - 0.01 in Fog , Rain Light Rain
10:41 AM 41.0 °F 32.8 °F 41.0 °F 100% 29.50 in 0.2 mi SSE 16.1 mph 21.9 mph 0.01 in Fog , Rain Light Rain
10:58 AM 41.0 °F 32.8 °F 41.0 °F 100% 29.54 in 0.2 mi SSE 16.1 mph 21.9 mph 0.02 in Fog , Rain Light Rain
11:11 AM 41.0 °F 33.1 °F 41.0 °F 100% 29.51 in 0.5 mi SSE 15.0 mph 23.0 mph 0.00 in Fog , Rain Light Rain
11:15 AM 41.0 °F 33.1 °F 41.0 °F 100% 29.51 in 0.2 mi SSE 15.0 mph 23.0 mph 0.00 in Fog , Rain Light Rain
11:45 AM 41.0 °F 33.5 °F 41.0 °F 100% 29.51 in 0.5 mi SSE 13.8 mph 21.9 mph 0.00 in Fog , Rain Light Rain
11:58 AM 41.0 °F 33.1 °F 41.0 °F 100% 29.55 in 0.2 mi SSE 15.0 mph 21.9 mph 0.00 in Fog , Rain Light Rain
12:49 PM 41.0 °F 33.5 °F 41.0 °F 100% 29.51 in 0.5 mi SE 13.8 mph - 0.00 in Fog , Rain Light Rain
12:58 PM 41.0 °F 33.1 °F 41.0 °F 100% 29.54 in 0.8 mi SE 15.0 mph 19.6 mph 0.00 in   Overcast
1:04 PM 41.0 °F 33.1 °F 41.0 °F 100% 29.51 in 1.0 mi SE 15.0 mph 19.6 mph N/A   Overcast
1:08 PM 41.0 °F 33.1 °F 41.0 °F 100% 29.51 in 1.8 mi SSE 15.0 mph 19.6 mph 0.00 in Rain Light Rain
1:10 PM 41.0 °F 33.5 °F 41.0 °F 100% 29.51 in 2.5 mi SE 13.8 mph 19.6 mph 0.00 in Rain Light Rain
1:14 PM 41.0 °F 33.5 °F 41.0 °F 100% 29.51 in 5.0 mi SE 13.8 mph 19.6 mph 0.00 in   Overcast
1:32 PM 41.0 °F 33.5 °F 41.0 °F 100% 29.51 in 1.8 mi SE 13.8 mph 20.7 mph 0.00 in Rain Light Rain
1:37 PM 41.0 °F 33.1 °F 41.0 °F 100% 29.51 in 1.0 mi SE 15.0 mph - 0.00 in Rain Light Rain
1:44 PM 41.0 °F 33.1 °F 41.0 °F 100% 29.51 in 1.2 mi SE 15.0 mph 20.7 mph 0.00 in Rain Light Rain
1:49 PM 41.0 °F 33.5 °F 41.0 °F 100% 29.51 in 1.8 mi SE 13.8 mph - 0.00 in Rain Light Rain
1:53 PM 41.0 °F 33.1 °F 41.0 °F 100% 29.52 in 2.5 mi SE 15.0 mph 20.7 mph 0.00 in Rain Light Rain
1:58 PM 41.0 °F 33.5 °F 41.0 °F 100% 29.55 in 2.0 mi SE 13.8 mph 20.7 mph 0.00 in Rain Light Rain
2:13 PM 41.0 °F 33.9 °F 41.0 °F 100% 29.51 in 4.0 mi SE 12.7 mph - 0.00 in Rain Light Rain
2:20 PM 41.0 °F 33.5 °F 41.0 °F 100% 29.51 in 2.5 mi SE 13.8 mph - 0.00 in Rain Light Rain
2:26 PM 41.0 °F 33.5 °F 41.0 °F 100% 29.51 in 1.2 mi SE 13.8 mph - 0.00 in Rain Light Rain
2:30 PM 41.0 °F 34.7 °F 41.0 °F 100% 29.51 in 1.0 mi SE 10.4 mph - 0.00 in Rain Light Rain
2:34 PM 41.0 °F 33.5 °F 41.0 °F 100% 29.51 in 0.8 mi SE 13.8 mph - 0.00 in Rain Light Rain
2:41 PM 41.0 °F 33.5 °F 41.0 °F 100% 29.51 in 0.5 mi SE 13.8 mph - 0.01 in Fog , Rain Light Rain
2:58 PM 41.0 °F 33.9 °F 41.0 °F 100% 29.54 in 0.5 mi SE 12.7 mph - 0.01 in Fog , Rain Light Rain
3:53 PM 41.0 °F 34.3 °F 41.0 °F 100% 29.51 in 0.8 mi SE 11.5 mph - 0.02 in Rain Light Rain
3:58 PM 41.0 °F 34.3 °F 41.0 °F 100% 29.55 in 0.8 mi SE 11.5 mph - 0.02 in Rain Light Rain
4:08 PM 41.0 °F 35.2 °F 41.0 °F 100% 29.51 in 1.0 mi SE 9.2 mph - 0.00 in Rain Light Rain
4:18 PM 41.0 °F 34.3 °F 41.0 °F 100% 29.51 in 1.2 mi SE 11.5 mph - 0.01 in Rain Light Rain
4:28 PM 41.0 °F 35.2 °F 41.0 °F 100% 29.51 in 1.0 mi SE 9.2 mph - 0.01 in Rain Light Rain
4:58 PM 41.0 °F 35.2 °F 41.0 °F 100% 29.54 in 0.8 mi SE 9.2 mph - 0.02 in Rain Light Rain
5:04 PM 41.0 °F 34.7 °F 41.0 °F 100% 29.50 in 1.0 mi SE 10.4 mph - 0.00 in Rain Light Rain
5:12 PM 41.0 °F 34.7 °F 41.0 °F 100% 29.50 in 0.8 mi SE 10.4 mph - 0.01 in Rain Light Rain
5:39 PM 41.0 °F 35.2 °F 41.0 °F 100% 29.51 in 0.5 mi SE 9.2 mph - 0.01 in Fog , Rain Light Rain
5:57 PM 41.0 °F 34.3 °F 41.0 °F 100% 29.55 in 0.5 mi SE 11.5 mph - 0.02 in Fog , Rain Light Rain
6:29 PM 41.0 °F 34.7 °F 41.0 °F 100% 29.52 in 0.5 mi SE 10.4 mph - 0.02 in Fog , Rain Light Rain
6:58 PM 41.0 °F 35.8 °F - N/A% 29.56 in 0.5 mi SE 8.1 mph - 0.03 in Rain Light Rain
7:23 PM 41.0 °F 35.2 °F 41.0 °F 100% 29.53 in 0.2 mi SE 9.2 mph - 0.00 in Fog , Rain Light Rain
7:51 PM 41.0 °F 35.2 °F 41.0 °F 100% 29.54 in 0.2 mi SE 9.2 mph - 0.00 in Fog Fog
7:58 PM 41.0 °F 34.7 °F 41.0 °F 100% 29.58 in 0.2 mi SE 10.4 mph - 0.00 in Fog Fog
8:12 PM 41.0 °F 35.2 °F 41.0 °F 100% 29.55 in 0.5 mi SE 9.2 mph - N/A Fog Fog
8:24 PM 41.0 °F 34.7 °F 41.0 °F 100% 29.56 in 0.2 mi SE 10.4 mph - N/A Fog Fog
8:36 PM 41.0 °F 35.8 °F 41.0 °F 100% 29.56 in 0.5 mi SE 8.1 mph - N/A Fog Fog
8:58 PM 41.0 °F 35.2 °F 41.0 °F 100% 29.61 in 0.5 mi SE 9.2 mph - 0.00 in Fog , Rain Light Rain
9:06 PM 41.0 °F 35.8 °F 41.0 °F 100% 29.58 in 0.2 mi SE 8.1 mph - 0.00 in Fog , Rain Light Rain
9:16 PM 41.0 °F 35.2 °F 41.0 °F 100% 29.58 in 0.5 mi SE 9.2 mph - 0.00 in Fog , Rain Light Rain
9:35 PM 41.0 °F 34.7 °F 41.0 °F 100% 29.59 in 0.8 mi SE 10.4 mph - 0.00 in Rain Light Rain
9:58 PM 41.0 °F 35.2 °F 41.0 °F 100% 29.64 in 0.8 mi SE 9.2 mph - 0.00 in Rain Light Rain
10:20 PM 41.0 °F 35.8 °F 39.2 °F 93% 29.62 in 0.5 mi SE 8.1 mph - 0.00 in Fog , Rain Light Rain
10:28 PM 41.0 °F 35.2 °F 41.0 °F 100% 29.62 in 0.8 mi SE 9.2 mph - 0.00 in Rain Light Rain
10:35 PM 41.0 °F 35.2 °F 41.0 °F 100% 29.63 in 0.5 mi SE 9.2 mph - 0.00 in Fog Fog
10:58 PM 41.0 °F 35.8 °F 41.0 °F 100% 29.68 in 0.5 mi SSE 8.1 mph - 0.00 in Fog Fog
11:39 PM 42.8 °F 37.0 °F 42.8 °F 100% 29.65 in 0.8 mi SSE 10.4 mph - N/A   Overcast
11:58 PM 42.1 °F 36.6 °F 41.0 °F 96% 29.69 in 0.8 mi SE 9.2 mph - N/A   Overcast